createdAt,value
2023-03-03T00:00:26.390Z,59.13
2023-03-03T00:01:53.882Z,60.84
2023-03-03T00:03:17.835Z,62.36
2023-03-03T00:04:53.811Z,64.72
2023-03-03T00:06:38.798Z,64.21
2023-03-03T00:08:02.785Z,60.93
2023-03-03T00:09:36.747Z,57.31
2023-03-03T00:11:06.097Z,55.69
2023-03-03T00:12:30.279Z,56.30
2023-03-03T00:13:59.520Z,57.93
2023-03-03T00:15:21.252Z,59.37
2023-03-03T00:16:56.726Z,60.79
2023-03-03T00:18:18.276Z,62.47
2023-03-03T00:20:00.773Z,64.50
2023-03-03T00:21:37.434Z,64.43
2023-03-03T00:23:12.915Z,61.17
2023-03-03T00:24:57.646Z,57.70
2023-03-03T00:26:51.726Z,55.84
2023-03-03T00:28:25.726Z,57.07
2023-03-03T00:29:54.956Z,58.87
2023-03-03T00:31:19.198Z,60.44
2023-03-03T00:32:56.115Z,61.92
2023-03-03T00:34:42.343Z,63.72
2023-03-03T00:36:27.487Z,64.63
2023-03-03T00:38:04.377Z,61.42
2023-03-03T00:39:28.287Z,58.66
2023-03-03T00:41:14.860Z,55.78
2023-03-03T00:42:48.351Z,56.54
2023-03-03T00:44:33.127Z,58.06
2023-03-03T00:45:55.341Z,59.58
2023-03-03T00:47:41.765Z,61.48
2023-03-03T00:49:22.827Z,63.17
2023-03-03T00:50:47.339Z,64.81
2023-03-03T00:52:32.835Z,63.20
2023-03-03T00:54:25.092Z,59.49
2023-03-03T00:56:05.904Z,56.11
2023-03-03T00:57:39.645Z,56.28
2023-03-03T00:59:24.678Z,57.75
2023-03-03T01:00:58.698Z,59.47
2023-03-03T01:02:57.367Z,61.58
2023-03-03T01:04:49.568Z,64.15
2023-03-03T01:06:22.692Z,64.26
2023-03-03T01:08:08.825Z,61.32
2023-03-03T01:09:43.446Z,57.96
2023-03-03T01:11:31.726Z,55.86
2023-03-03T01:13:07.796Z,56.74
2023-03-03T01:15:02.711Z,58.74
2023-03-03T01:16:47.777Z,60.80
2023-03-03T01:18:28.863Z,62.94
2023-03-03T01:20:13.566Z,64.84
2023-03-03T01:21:56.046Z,63.17
2023-03-03T01:23:41.770Z,59.33
2023-03-03T01:25:15.783Z,56.08
2023-03-03T01:26:49.453Z,55.96
2023-03-03T01:28:15.771Z,57.51
2023-03-03T01:30:01.093Z,59.00
2023-03-03T01:31:34.898Z,60.75
2023-03-03T01:33:11.292Z,62.18
2023-03-03T01:34:52.091Z,64.19
2023-03-03T01:36:37.119Z,64.47
2023-03-03T01:38:10.366Z,61.81
2023-03-03T01:39:32.245Z,58.47
2023-03-03T01:40:56.648Z,56.12
2023-03-03T01:42:30.307Z,56.16
2023-03-03T01:44:15.922Z,57.66
2023-03-03T01:45:58.087Z,59.40
2023-03-03T01:47:43.409Z,61.18
2023-03-03T01:49:17.526Z,63.29
2023-03-03T01:50:51.283Z,64.71
2023-03-03T01:52:27.315Z,62.55
2023-03-03T01:54:12.880Z,59.24
2023-03-03T01:55:54.269Z,55.97
2023-03-03T01:57:27.687Z,55.85
2023-03-03T01:59:13.156Z,57.40
2023-03-03T02:00:47.529Z,59.17
2023-03-03T02:02:12.968Z,60.71
2023-03-03T02:04:01.648Z,62.58
2023-03-03T02:05:49.122Z,64.84
2023-03-03T02:07:34.097Z,63.01
2023-03-03T02:09:07.635Z,59.34
2023-03-03T02:11:01.280Z,56.09
2023-03-03T02:12:50.602Z,56.19
2023-03-03T02:14:26.024Z,58.06
2023-03-03T02:16:02.228Z,59.85
2023-03-03T02:17:47.361Z,61.26
2023-03-03T02:19:11.380Z,62.59
2023-03-03T02:20:56.789Z,64.38
2023-03-03T02:22:30.210Z,63.31
2023-03-03T02:24:24.684Z,60.17
2023-03-03T02:26:12.124Z,55.84
2023-03-03T02:28:06.669Z,55.73
2023-03-03T02:29:52.280Z,57.60
2023-03-03T02:31:45.847Z,59.42
2023-03-03T02:33:21.882Z,61.11
2023-03-03T02:34:50.915Z,62.87
2023-03-03T02:36:15.062Z,64.75
2023-03-03T02:40:01.803Z,59.40
2023-03-03T02:41:55.696Z,56.25
2023-03-03T02:43:43.565Z,56.27
2023-03-03T02:45:36.943Z,57.96
2023-03-03T02:47:12.636Z,59.98
2023-03-03T02:48:46.620Z,61.52
2023-03-03T02:50:15.838Z,63.52
2023-03-03T02:51:55.778Z,64.85
2023-03-03T02:53:31.965Z,62.51
2023-03-03T02:55:17.620Z,58.89
2023-03-03T02:56:53.276Z,55.98
2023-03-03T02:58:48.677Z,56.34
2023-03-03T03:00:22.038Z,58.19
2023-03-03T03:02:07.714Z,59.88
2023-03-03T03:03:38.055Z,61.59
2023-03-03T03:05:14.647Z,63.54
2023-03-03T03:06:51.028Z,64.97
2023-03-03T03:08:19.963Z,62.91
2023-03-03T03:09:55.814Z,59.78
2023-03-03T03:11:43.232Z,56.29
2023-03-03T03:13:37.656Z,56.25
2023-03-03T03:15:32.724Z,58.26
2023-03-03T03:17:13.899Z,60.56
2023-03-03T03:19:08.700Z,62.28
2023-03-03T03:20:50.227Z,64.96
2023-03-03T03:22:47.769Z,63.53
2023-03-03T03:24:20.817Z,59.56
2023-03-03T03:26:11.671Z,56.08
2023-03-03T03:27:59.296Z,55.97
2023-03-03T03:29:35.729Z,57.90
2023-03-03T03:31:10.684Z,59.18
2023-03-03T03:32:47.079Z,61.15
2023-03-03T03:34:41.652Z,62.46
2023-03-03T03:36:14.222Z,64.91
2023-03-03T03:38:01.770Z,64.09
2023-03-03T03:39:42.848Z,60.59
2023-03-03T03:41:27.995Z,56.87
2023-03-03T03:43:14.151Z,55.86
2023-03-03T03:44:59.511Z,57.31
2023-03-03T03:46:50.708Z,59.08
2023-03-03T03:48:19.963Z,60.65
2023-03-03T03:49:56.135Z,62.36
2023-03-03T03:51:42.260Z,64.41
2023-03-03T03:53:17.867Z,63.91
2023-03-03T03:54:43.204Z,61.37
2023-03-03T03:56:37.777Z,58.10
2023-03-03T03:58:32.669Z,56.03
2023-03-03T04:00:22.324Z,57.50
2023-03-03T04:02:07.431Z,59.39
2023-03-03T04:04:02.748Z,61.27
2023-03-03T04:05:36.177Z,63.07
2023-03-03T04:07:12.193Z,64.97
2023-03-03T04:08:54.180Z,63.18
2023-03-03T04:10:28.470Z,59.57
2023-03-03T04:12:02.903Z,56.40
2023-03-03T04:13:40.599Z,55.82
2023-03-03T04:15:25.705Z,57.68
2023-03-03T04:16:49.375Z,59.30
2023-03-03T04:18:26.035Z,61.03
2023-03-03T04:20:02.284Z,62.78
2023-03-03T04:21:44.009Z,64.82
2023-03-03T04:23:17.623Z,63.38
2023-03-03T04:25:03.120Z,59.86
2023-03-03T04:26:56.888Z,55.98
2023-03-03T04:28:30.771Z,55.98
2023-03-03T04:30:07.117Z,57.55
2023-03-03T04:31:40.930Z,59.39
2023-03-03T04:33:34.179Z,61.15
2023-03-03T04:35:27.832Z,63.04
2023-03-03T04:37:04.256Z,64.79
2023-03-03T04:38:46.807Z,63.16
2023-03-03T04:40:29.810Z,59.55
2023-03-03T04:42:15.835Z,55.97
2023-03-03T04:44:01.755Z,56.09
2023-03-03T04:45:43.572Z,57.85
2023-03-03T04:47:28.691Z,59.82
2023-03-03T04:49:14.219Z,61.61
2023-03-03T04:50:48.879Z,63.86
2023-03-03T04:52:21.888Z,65.15
2023-03-03T04:53:43.972Z,62.99
2023-03-03T04:55:17.499Z,60.20
2023-03-03T04:56:54.117Z,56.57
2023-03-03T04:58:36.822Z,55.94
2023-03-03T05:00:23.597Z,57.36
2023-03-03T05:02:09.118Z,59.48
2023-03-03T05:03:45.205Z,61.30
2023-03-03T05:05:19.268Z,62.56
2023-03-03T05:07:05.071Z,65.09
2023-03-03T05:08:50.606Z,63.63
2023-03-03T05:10:44.254Z,60.03
2023-03-03T05:12:37.826Z,56.29
2023-03-03T05:14:31.697Z,56.37
2023-03-03T05:16:05.844Z,58.64
2023-03-03T05:17:51.584Z,60.20
2023-03-03T05:19:44.181Z,62.04
2023-03-03T05:21:17.921Z,64.23
2023-03-03T05:23:05.025Z,64.39
2023-03-03T05:24:58.343Z,61.10
2023-03-03T05:26:31.948Z,57.21
2023-03-03T05:28:05.319Z,55.98
2023-03-03T05:29:50.389Z,56.95
2023-03-03T05:31:31.500Z,58.99
2023-03-03T05:33:16.705Z,60.96
2023-03-03T05:34:52.502Z,62.90
2023-03-03T05:36:34.022Z,64.86
2023-03-03T05:38:07.714Z,63.77
2023-03-03T05:40:01.217Z,60.52
2023-03-03T05:41:45.082Z,56.81
2023-03-03T05:43:39.684Z,55.83
2023-03-03T05:45:24.933Z,57.75
2023-03-03T05:47:10.002Z,59.72
2023-03-03T05:48:46.098Z,61.74
2023-03-03T05:50:35.455Z,63.47
2023-03-03T05:52:09.281Z,65.04
2023-03-03T05:54:02.889Z,62.74
2023-03-03T05:55:53.682Z,58.79
2023-03-03T05:57:46.950Z,55.72
2023-03-03T05:59:36.703Z,56.88
2023-03-03T06:01:22.069Z,58.95
2023-03-03T06:03:07.483Z,60.89
2023-03-03T06:05:01.775Z,62.69
2023-03-03T06:06:56.782Z,65.16
2023-03-03T06:08:32.736Z,62.96
2023-03-03T06:10:11.332Z,59.58
2023-03-03T06:12:04.748Z,56.48
2023-03-03T06:13:46.139Z,56.59
2023-03-03T06:15:27.179Z,58.10
2023-03-03T06:17:14.267Z,60.29
2023-03-03T06:19:08.554Z,62.16
2023-03-03T06:20:57.890Z,64.97
2023-03-03T06:22:39.620Z,64.47
2023-03-03T06:24:15.750Z,60.64
2023-03-03T06:26:10.500Z,57.27
2023-03-03T06:27:47.182Z,56.07
2023-03-03T06:29:40.596Z,57.50
2023-03-03T06:31:14.700Z,59.48
2023-03-03T06:32:59.844Z,61.30
2023-03-03T06:34:33.818Z,63.41
2023-03-03T06:36:07.375Z,65.53
2023-03-03T06:37:53.724Z,63.88
2023-03-03T06:39:35.718Z,60.66
2023-03-03T06:41:09.861Z,57.52
2023-03-03T06:43:03.838Z,55.97
2023-03-03T06:44:40.374Z,57.70
2023-03-03T06:46:25.454Z,59.46
2023-03-03T06:47:58.517Z,61.55
2023-03-03T06:49:30.309Z,63.21
2023-03-03T06:51:15.836Z,65.18
2023-03-03T06:52:38.244Z,63.84
2023-03-03T06:54:27.319Z,60.85
2023-03-03T06:56:14.850Z,57.36
2023-03-03T06:58:01.244Z,56.47
2023-03-03T06:59:38.100Z,57.83
2023-03-03T07:01:23.297Z,59.98
2023-03-03T07:02:56.976Z,61.75
2023-03-03T07:04:49.807Z,63.94
2023-03-03T07:06:26.976Z,64.65
2023-03-03T07:08:00.144Z,61.95
2023-03-03T07:09:45.617Z,58.81
2023-03-03T07:11:21.466Z,56.52
2023-03-03T07:13:07.187Z,57.06
2023-03-03T07:14:39.198Z,58.89
2023-03-03T07:16:15.115Z,60.75
2023-03-03T07:17:55.607Z,62.42
2023-03-03T07:19:43.718Z,64.84
2023-03-03T07:21:17.676Z,64.07
2023-03-03T07:23:11.544Z,61.04
2023-03-03T07:24:45.118Z,57.12
2023-03-03T07:26:26.511Z,56.03
2023-03-03T07:28:00.175Z,57.41
2023-03-03T07:29:34.311Z,59.34
2023-03-03T07:31:07.740Z,61.04
2023-03-03T07:32:59.167Z,62.79
2023-03-03T07:34:35.626Z,64.99
2023-03-03T07:36:16.765Z,63.41
2023-03-03T07:38:03.320Z,59.97
2023-03-03T07:39:35.278Z,56.75
2023-03-03T07:41:08.608Z,56.16
2023-03-03T07:42:44.559Z,57.50
2023-03-03T07:44:40.351Z,59.60
2023-03-03T07:46:02.937Z,61.97
2023-03-03T07:47:27.799Z,63.82
2023-03-03T07:49:13.109Z,64.94
2023-03-03T07:51:02.212Z,62.18
2023-03-03T07:52:52.686Z,58.96
2023-03-03T07:54:29.399Z,56.14
2023-03-03T07:56:11.007Z,56.63
2023-03-03T07:57:59.841Z,58.71
2023-03-03T07:59:34.581Z,60.90
2023-03-03T08:01:19.652Z,62.59
2023-03-03T08:03:09.379Z,65.06
2023-03-03T08:04:54.792Z,63.69
2023-03-03T08:06:38.252Z,60.40
2023-03-03T08:08:24.346Z,57.16
2023-03-03T08:10:10.175Z,56.65
2023-03-03T08:11:55.723Z,58.12
2023-03-03T08:13:31.786Z,60.25
2023-03-03T08:15:25.225Z,62.11
2023-03-03T08:17:11.563Z,64.89
2023-03-03T08:18:56.172Z,64.82
2023-03-03T08:20:47.353Z,61.09
2023-03-03T08:22:43.644Z,57.52
2023-03-03T08:24:38.573Z,56.16
2023-03-03T08:26:20.552Z,58.05
2023-03-03T08:28:06.265Z,60.00
2023-03-03T08:29:54.461Z,61.87
2023-03-03T08:31:48.532Z,64.00
2023-03-03T08:33:41.825Z,65.09
2023-03-03T08:35:31.101Z,61.99
2023-03-03T08:37:04.289Z,58.28
2023-03-03T08:38:54.605Z,56.16
2023-03-03T08:40:47.976Z,57.31
2023-03-03T08:42:35.496Z,59.48
2023-03-03T08:44:29.610Z,61.49
2023-03-03T08:46:14.998Z,64.00
2023-03-03T08:48:09.261Z,64.76
2023-03-03T08:49:54.644Z,61.52
2023-03-03T08:51:48.612Z,57.78
2023-03-03T08:53:42.602Z,55.79
2023-03-03T08:55:36.821Z,57.06
2023-03-03T08:57:22.529Z,59.17
2023-03-03T08:59:02.212Z,61.01
2023-03-03T09:00:51.150Z,63.62
2023-03-03T09:02:46.116Z,65.27
2023-03-03T09:04:21.949Z,62.32
2023-03-03T09:06:09.509Z,58.75
2023-03-03T09:07:55.666Z,55.98
2023-03-03T09:09:50.705Z,57.03
2023-03-03T09:11:45.740Z,59.17
2023-03-03T09:13:09.347Z,61.03
2023-03-03T09:14:31.550Z,62.12
2023-03-03T09:15:55.827Z,63.87
2023-03-03T09:17:17.895Z,64.73
2023-03-03T09:18:39.744Z,63.20
2023-03-03T09:20:02.836Z,60.16
2023-03-03T09:21:24.545Z,57.02
2023-03-03T09:22:46.604Z,55.61
2023-03-03T09:24:08.814Z,56.25
2023-03-03T09:25:42.370Z,57.64
2023-03-03T09:27:16.252Z,59.39
2023-03-03T09:29:02.249Z,61.23
2023-03-03T09:30:23.990Z,62.47
2023-03-03T09:32:02.181Z,64.32
2023-03-03T09:33:39.302Z,63.67
2023-03-03T09:35:11.668Z,60.30
2023-03-03T09:36:33.686Z,57.21
2023-03-03T09:38:05.680Z,55.61
2023-03-03T09:39:41.611Z,56.64
2023-03-03T09:41:15.366Z,58.13
2023-03-03T09:42:51.446Z,59.52
2023-03-03T09:44:28.959Z,61.20
2023-03-03T09:46:04.835Z,62.52
2023-03-03T09:47:59.685Z,64.76
2023-03-03T09:49:33.212Z,63.10
2023-03-03T09:51:09.323Z,59.58
2023-03-03T09:53:01.297Z,55.61
2023-03-03T09:54:56.623Z,55.13
2023-03-03T09:56:51.033Z,57.15
2023-03-03T09:58:31.659Z,58.72
2023-03-03T10:00:17.791Z,60.26
2023-03-03T10:01:42.284Z,61.50
2023-03-03T10:03:29.725Z,63.13
2023-03-03T10:05:16.601Z,64.24
2023-03-03T10:07:01.734Z,61.41
2023-03-03T10:08:42.941Z,57.47
2023-03-03T10:10:07.813Z,55.78
2023-03-03T10:11:52.573Z,56.09
2023-03-03T10:13:34.384Z,57.94
2023-03-03T10:15:19.943Z,59.30
2023-03-03T10:17:04.790Z,60.73
2023-03-03T10:18:58.432Z,62.17
2023-03-03T10:20:37.480Z,64.49
2023-03-03T10:22:21.700Z,63.36
2023-03-03T10:24:07.616Z,60.35
2023-03-03T10:26:01.255Z,56.22
2023-03-03T10:27:34.762Z,55.27
2023-03-03T10:29:08.620Z,56.22
2023-03-03T10:30:54.573Z,57.54
2023-03-03T10:32:45.516Z,59.39
2023-03-03T10:34:30.781Z,61.16
2023-03-03T10:36:13.247Z,62.41
2023-03-03T10:37:35.643Z,64.32
2023-03-03T10:39:11.657Z,64.08
2023-03-03T10:41:00.376Z,60.79
2023-03-03T10:42:46.541Z,56.64
2023-03-03T10:44:32.668Z,55.64
2023-03-03T10:46:18.202Z,56.85
2023-03-03T10:47:53.061Z,58.30
2023-03-03T10:49:46.736Z,59.87
2023-03-03T10:51:27.992Z,61.64
2023-03-03T10:53:02.139Z,63.74
2023-03-03T10:54:35.938Z,64.65
2023-03-03T10:56:17.286Z,62.08
2023-03-03T10:58:06.196Z,58.47
2023-03-03T10:59:35.753Z,55.44
2023-03-03T11:01:12.428Z,56.18
2023-03-03T11:02:59.808Z,57.60
2023-03-03T11:04:33.410Z,59.18
2023-03-03T11:06:07.801Z,60.60
2023-03-03T11:07:59.707Z,62.23
2023-03-03T11:09:42.194Z,64.22
2023-03-03T11:11:17.878Z,63.11
2023-03-03T11:13:06.540Z,59.81
2023-03-03T11:14:53.431Z,56.08
2023-03-03T11:16:37.373Z,55.65
2023-03-03T11:18:25.789Z,56.64
2023-03-03T11:20:11.616Z,58.41
2023-03-03T11:21:47.016Z,59.97
2023-03-03T11:23:18.278Z,61.54
2023-03-03T11:25:03.572Z,62.77
2023-03-03T11:26:57.517Z,64.62
2023-03-03T11:28:31.199Z,61.83
2023-03-03T11:30:16.253Z,58.45
2023-03-03T11:32:02.316Z,55.58
2023-03-03T11:33:57.577Z,56.12
2023-03-03T11:35:34.117Z,57.75
2023-03-03T11:37:07.705Z,59.76
2023-03-03T11:38:53.569Z,61.08
2023-03-03T11:40:27.611Z,62.67
2023-03-03T11:42:09.713Z,64.64
2023-03-03T11:43:43.947Z,63.47
2023-03-03T11:45:13.566Z,60.69
2023-03-03T11:46:45.754Z,57.31
2023-03-03T11:48:08.997Z,55.77
2023-03-03T11:49:54.172Z,56.57
2023-03-03T11:51:31.501Z,58.28
2023-03-03T11:53:16.639Z,59.81
2023-03-03T11:54:50.748Z,61.31
2023-03-03T11:56:27.023Z,63.10
2023-03-03T11:58:08.890Z,64.60
2023-03-03T11:59:50.415Z,62.86
2023-03-03T12:01:12.785Z,59.40
2023-03-03T12:03:06.440Z,56.29
2023-03-03T12:04:42.454Z,56.25
2023-03-03T12:06:06.376Z,57.56
2023-03-03T12:07:48.883Z,59.25
2023-03-03T12:09:30.253Z,60.96
2023-03-03T12:11:15.288Z,62.72
2023-03-03T12:12:49.625Z,64.59
2023-03-03T12:14:35.070Z,62.93
2023-03-03T12:16:16.219Z,59.61
2023-03-03T12:17:50.716Z,56.18
2023-03-03T12:19:27.670Z,55.89
2023-03-03T12:21:14.156Z,57.35
2023-03-03T12:23:06.474Z,59.24
2023-03-03T12:24:41.432Z,61.35
2023-03-03T12:26:26.726Z,63.12
2023-03-03T12:28:14.192Z,64.82
2023-03-03T12:29:38.854Z,62.57
2023-03-03T12:31:14.774Z,59.33
2023-03-03T12:33:09.595Z,56.19
2023-03-03T12:37:03.686Z,58.39
2023-03-03T12:38:57.260Z,60.32
2023-03-03T12:40:21.818Z,61.98
2023-03-03T12:42:11.016Z,64.09
2023-03-03T12:43:51.823Z,64.64
2023-03-03T12:45:40.152Z,61.88
2023-03-03T12:47:30.306Z,58.05
2023-03-03T12:49:15.508Z,55.91
2023-03-03T12:51:02.211Z,56.97
2023-03-03T12:52:43.190Z,58.59
2023-03-03T12:54:19.039Z,60.34
2023-03-03T12:56:04.007Z,62.13
2023-03-03T12:57:49.330Z,64.56
2023-03-03T12:59:43.396Z,64.51
2023-03-03T13:01:16.788Z,60.89
2023-03-03T13:02:59.119Z,57.60
2023-03-03T13:04:23.253Z,56.08
2023-03-03T13:06:04.017Z,56.82
2023-03-03T13:07:38.208Z,58.68
2023-03-03T13:09:24.077Z,60.40
2023-03-03T13:11:10.241Z,62.18
2023-03-03T13:12:55.960Z,64.61
2023-03-03T13:14:17.810Z,64.27
2023-03-03T13:16:06.137Z,61.48
2023-03-03T13:17:49.508Z,57.76
2023-03-03T13:19:25.574Z,56.20
2023-03-03T13:21:11.637Z,57.29
2023-03-03T13:22:57.716Z,59.18
2023-03-03T13:24:43.999Z,61.25
2023-03-03T13:26:30.835Z,63.22
2023-03-03T13:28:08.644Z,65.17
2023-03-03T13:30:58.360Z,60.65
2023-03-03T13:32:53.290Z,57.38
2023-03-03T13:34:46.537Z,56.14
2023-03-03T13:36:40.075Z,58.03
2023-03-03T13:38:26.197Z,60.42
2023-03-03T13:40:08.530Z,62.55
2023-03-03T13:41:50.297Z,65.26
2023-03-03T13:43:26.514Z,64.56
2023-03-03T13:45:12.350Z,61.43
2023-03-03T13:47:06.131Z,58.15
2023-03-03T13:48:49.968Z,56.39
2023-03-03T13:50:35.700Z,57.88
2023-03-03T13:52:24.620Z,59.97
2023-03-03T13:53:58.218Z,62.26
2023-03-03T13:55:21.624Z,64.53
2023-03-03T13:57:03.892Z,65.50
2023-03-03T13:58:41.036Z,63.12
2023-03-03T14:00:05.518Z,60.26
2023-03-03T14:01:41.483Z,57.34
2023-03-03T14:03:03.412Z,56.22
2023-03-03T14:04:33.171Z,57.29
2023-03-03T14:05:57.384Z,58.90
2023-03-03T14:07:52.565Z,60.85
2023-03-03T14:09:42.591Z,63.25
2023-03-03T14:11:15.991Z,65.34
2023-03-03T14:12:57.889Z,63.92
2023-03-03T14:14:33.512Z,60.39
2023-03-03T14:16:07.194Z,57.90
2023-03-03T14:17:41.072Z,56.71
2023-03-03T14:19:27.639Z,57.79
2023-03-03T14:21:13.398Z,59.49
2023-03-03T14:23:01.881Z,61.51
2023-03-03T14:24:47.593Z,64.07
2023-03-03T14:26:23.515Z,65.05
2023-03-03T14:28:09.282Z,62.40
2023-03-03T14:30:04.670Z,58.95
2023-03-03T14:31:47.205Z,56.25
2023-03-03T14:33:41.005Z,57.41
2023-03-03T14:35:26.437Z,59.62
2023-03-03T14:37:12.262Z,61.87
2023-03-03T14:38:58.869Z,64.55
2023-03-03T14:40:53.710Z,65.03
2023-03-03T14:42:36.600Z,62.19
2023-03-03T14:44:31.579Z,58.62
2023-03-03T14:46:16.637Z,56.20
2023-03-03T14:47:51.487Z,57.29
2023-03-03T14:49:24.986Z,59.52
2023-03-03T14:51:08.569Z,61.34
2023-03-03T14:53:02.466Z,64.00
2023-03-03T14:54:48.387Z,65.17
2023-03-03T14:56:35.526Z,62.33
2023-03-03T14:58:22.628Z,59.05
2023-03-03T15:00:07.989Z,56.60
2023-03-03T15:01:44.654Z,57.24
2023-03-03T15:03:18.537Z,58.81
2023-03-03T15:04:52.000Z,60.93
2023-03-03T15:06:25.704Z,63.18
2023-03-03T15:08:10.526Z,65.17
2023-03-03T15:09:55.651Z,63.57
2023-03-03T15:11:37.040Z,59.67
2023-03-03T15:13:11.120Z,56.75
2023-03-03T15:14:56.746Z,56.35
2023-03-03T15:16:30.316Z,58.13
2023-03-03T15:18:15.204Z,60.03
2023-03-03T15:20:06.627Z,62.14
2023-03-03T15:21:40.079Z,65.15
2023-03-03T15:23:01.928Z,65.19
2023-03-03T15:24:56.617Z,62.58
2023-03-03T15:26:20.926Z,59.22
2023-03-03T15:28:06.252Z,56.42
2023-03-03T15:29:51.567Z,56.16
2023-03-03T15:31:45.125Z,58.07
2023-03-03T15:33:30.512Z,60.50
2023-03-03T15:35:14.332Z,62.49
2023-03-03T15:37:00.542Z,65.17
2023-03-03T15:38:46.576Z,64.03
2023-03-03T15:40:28.565Z,60.75
2023-03-03T15:42:02.312Z,57.99
2023-03-03T15:43:48.573Z,56.35
2023-03-03T15:45:41.898Z,57.76
2023-03-03T15:47:35.504Z,60.15
2023-03-03T15:49:16.178Z,62.31
2023-03-03T15:50:50.610Z,64.90
2023-03-03T15:52:33.339Z,65.12
2023-03-03T15:54:26.926Z,61.79
2023-03-03T15:56:11.926Z,58.11
2023-03-03T15:57:50.117Z,56.15
2023-03-03T15:59:35.671Z,57.06
2023-03-03T16:01:22.456Z,59.19
2023-03-03T16:03:07.821Z,61.42
2023-03-03T16:04:51.564Z,63.18
2023-03-03T16:06:46.619Z,65.48
2023-03-03T16:08:20.230Z,63.41
2023-03-03T16:09:53.950Z,60.53
2023-03-03T16:11:28.537Z,57.43
2023-03-03T16:13:13.985Z,56.59
2023-03-03T16:14:59.641Z,58.06
2023-03-03T16:16:28.923Z,60.00
2023-03-03T16:18:13.842Z,62.33
2023-03-03T16:19:47.940Z,64.75
2023-03-03T16:21:17.824Z,64.57
2023-03-03T16:23:09.151Z,61.70
2023-03-03T16:24:45.902Z,58.34
2023-03-03T16:26:10.005Z,56.20
2023-03-03T16:27:51.069Z,56.87
2023-03-03T16:29:44.523Z,58.46
2023-03-03T16:31:18.327Z,60.42
2023-03-03T16:33:04.581Z,62.36
2023-03-03T16:34:43.087Z,65.04
2023-03-03T16:36:04.721Z,64.78
2023-03-03T16:37:50.566Z,62.29
2023-03-03T16:39:31.507Z,58.71
2023-03-03T16:41:16.842Z,56.30
2023-03-03T16:42:52.605Z,57.27
2023-03-03T16:44:24.417Z,58.85
2023-03-03T16:46:06.284Z,60.64
2023-03-03T16:47:40.653Z,62.68
2023-03-03T16:49:14.197Z,64.83
2023-03-03T16:50:56.132Z,64.52
2023-03-03T16:52:31.371Z,61.07
2023-03-03T16:54:04.826Z,57.86
2023-03-03T16:55:38.497Z,55.88
2023-03-03T16:57:02.777Z,56.44
2023-03-03T16:58:58.596Z,58.05
2023-03-03T17:00:53.574Z,60.49
2023-03-03T17:02:27.261Z,62.78
2023-03-03T17:04:03.530Z,64.82
2023-03-03T17:05:45.049Z,63.65
2023-03-03T17:07:11.333Z,60.61
2023-03-03T17:11:20.618Z,56.45
2023-03-03T17:13:05.414Z,58.31
2023-03-03T17:14:27.654Z,60.22
2023-03-03T17:16:08.500Z,61.97
2023-03-03T17:20:19.455Z,63.26
2023-03-03T17:21:43.550Z,60.45
2023-03-03T17:23:28.855Z,57.25
2023-03-03T17:25:09.499Z,56.19
2023-03-03T17:26:53.988Z,57.62
2023-03-03T17:28:29.172Z,59.58
2023-03-03T17:30:05.760Z,61.45
2023-03-03T17:31:39.267Z,63.18
2023-03-03T17:33:24.595Z,64.95
2023-03-03T17:35:09.408Z,62.98
2023-03-03T17:36:57.489Z,59.48
2023-03-03T17:38:45.924Z,56.35
2023-03-03T17:40:39.578Z,56.67
2023-03-03T17:42:24.724Z,58.65
2023-03-03T17:44:10.590Z,60.60
2023-03-03T17:45:59.264Z,62.84
2023-03-03T17:47:41.070Z,64.94
2023-03-03T17:49:21.704Z,63.06
2023-03-03T17:51:05.276Z,59.56
2023-03-03T17:52:31.575Z,56.31
2023-03-03T17:54:07.567Z,55.99
2023-03-03T17:55:36.656Z,57.70
2023-03-03T17:57:03.112Z,59.29
2023-03-03T17:58:48.864Z,61.12
2023-03-03T18:00:29.151Z,63.50
2023-03-03T18:01:58.510Z,65.26
2023-03-03T18:03:34.251Z,63.84
2023-03-03T18:05:08.042Z,60.73
2023-03-03T18:06:44.274Z,57.41
2023-03-03T18:08:30.498Z,55.80
2023-03-03T18:10:00.307Z,57.13
2023-03-03T18:11:22.128Z,58.74
2023-03-03T18:13:03.081Z,60.60
2023-03-03T18:14:37.020Z,62.22
2023-03-03T18:16:12.398Z,64.57
2023-03-03T18:18:07.628Z,64.78
2023-03-03T18:19:58.569Z,61.29
2023-03-03T18:21:50.573Z,57.50
2023-03-03T18:23:34.349Z,56.09
2023-03-03T18:25:07.637Z,57.67
2023-03-03T18:26:56.443Z,59.58
2023-03-03T18:28:18.686Z,61.55
2023-03-03T18:30:03.791Z,63.61
2023-03-03T18:31:54.272Z,65.40
2023-03-03T18:33:26.439Z,62.91
2023-03-03T18:35:03.302Z,60.06
2023-03-03T18:36:53.612Z,56.58
2023-03-03T18:38:34.864Z,56.34
2023-03-03T18:40:08.596Z,58.00
2023-03-03T18:41:55.201Z,59.76
2023-03-03T18:43:28.675Z,61.80
2023-03-03T18:44:55.067Z,63.81
2023-03-03T18:46:19.185Z,65.48
2023-03-03T18:48:04.077Z,63.60
2023-03-03T18:49:25.976Z,60.39
2023-03-03T18:51:01.634Z,57.18
2023-03-03T18:52:43.564Z,55.90
2023-03-03T18:54:17.238Z,57.22
2023-03-03T18:55:46.958Z,58.93
2023-03-03T18:57:11.171Z,60.52
2023-03-03T18:58:44.983Z,62.40
2023-03-03T19:00:26.657Z,64.66
2023-03-03T19:02:04.418Z,64.58
2023-03-03T19:03:45.504Z,61.35
2023-03-03T19:05:07.469Z,58.17
2023-03-03T19:06:43.663Z,56.03
2023-03-03T19:08:28.900Z,56.63
2023-03-03T19:10:14.469Z,58.59
2023-03-03T19:11:56.852Z,60.63
2023-03-03T19:13:33.581Z,62.47
2023-03-03T19:15:06.760Z,64.79
2023-03-03T19:16:52.446Z,64.00
2023-03-03T19:18:21.370Z,60.86
2023-03-03T19:20:06.421Z,57.76
2023-03-03T19:21:53.133Z,56.05
2023-03-03T19:23:22.194Z,57.30
2023-03-03T19:25:06.296Z,58.84
2023-03-03T19:26:52.040Z,61.05
2023-03-03T19:28:46.654Z,63.05
2023-03-03T19:30:23.890Z,65.28
2023-03-03T19:31:59.831Z,63.26
2023-03-03T19:33:57.105Z,60.08
2023-03-03T19:35:40.690Z,56.68
2023-03-03T19:37:26.417Z,56.40
2023-03-03T19:39:00.208Z,58.28
2023-03-03T19:40:58.218Z,60.09
2023-03-03T19:42:34.225Z,62.30
2023-03-03T19:44:19.296Z,64.63
2023-03-03T19:46:04.457Z,64.71
2023-03-03T19:47:38.177Z,61.62
2023-03-03T19:49:11.742Z,58.99
2023-03-03T19:50:54.529Z,56.43
2023-03-03T19:52:38.040Z,56.86
2023-03-03T19:54:23.320Z,58.78
2023-03-03T19:56:08.029Z,60.63
2023-03-03T19:57:56.514Z,62.94
2023-03-03T19:59:28.491Z,65.20
2023-03-03T20:01:13.673Z,63.80
2023-03-03T20:02:59.497Z,60.48
2023-03-03T20:04:54.584Z,57.17
2023-03-03T20:06:40.354Z,56.47
2023-03-03T20:08:16.713Z,58.11
2023-03-03T20:09:53.339Z,59.80
2023-03-03T20:11:38.534Z,61.76
2023-03-03T20:13:12.106Z,63.91
2023-03-03T20:14:57.840Z,65.13
2023-03-03T20:16:42.668Z,62.40
2023-03-03T20:18:27.288Z,59.28
2023-03-03T20:19:58.869Z,56.16
2023-03-03T20:21:33.094Z,56.61
2023-03-03T20:23:18.077Z,58.29
2023-03-03T20:24:51.993Z,60.23
2023-03-03T20:26:35.576Z,62.18
2023-03-03T20:28:30.572Z,64.97
2023-03-03T20:30:11.339Z,64.07
2023-03-03T20:31:58.972Z,60.63
2023-03-03T20:33:48.258Z,57.08
2023-03-03T20:35:25.560Z,56.11
2023-03-03T20:37:06.402Z,57.85
2023-03-03T20:38:42.319Z,60.03
2023-03-03T20:40:27.445Z,61.98
2023-03-03T20:42:12.203Z,64.79
2023-03-03T20:43:45.792Z,65.12
2023-03-03T20:45:21.301Z,62.15
2023-03-03T20:47:01.913Z,59.03
2023-03-03T20:48:56.529Z,56.37
2023-03-03T20:50:37.574Z,57.32
2023-03-03T20:52:10.891Z,59.30
2023-03-03T20:53:47.564Z,61.03
2023-03-03T20:55:41.142Z,63.17
2023-03-03T20:57:05.300Z,65.46
2023-03-03T20:58:29.575Z,64.07
2023-03-03T20:59:53.563Z,61.34
2023-03-03T21:01:30.542Z,58.37
2023-03-03T21:03:06.205Z,55.98
2023-03-03T21:04:30.735Z,56.62
2023-03-03T21:06:15.675Z,58.35
2023-03-03T21:08:09.171Z,60.56
2023-03-03T21:10:01.444Z,63.11
2023-03-03T21:11:56.564Z,65.52
2023-03-03T21:13:37.169Z,63.30
2023-03-03T21:15:12.696Z,60.18
2023-03-03T21:16:53.957Z,56.84
2023-03-03T21:18:30.035Z,56.28
2023-03-03T21:20:10.763Z,57.78
2023-03-03T21:22:00.823Z,59.73
2023-03-03T21:23:47.057Z,61.96
2023-03-03T21:25:20.438Z,64.53
2023-03-03T21:26:51.919Z,65.18
2023-03-03T21:28:27.349Z,62.82
2023-03-03T21:30:00.611Z,59.69
2023-03-03T21:31:43.551Z,56.84
2023-03-03T21:33:37.051Z,56.64
2023-03-03T21:35:10.751Z,58.58
2023-03-03T21:36:44.522Z,60.32
2023-03-03T21:38:20.575Z,62.41
2023-03-03T21:40:05.701Z,64.98
2023-03-03T21:41:51.013Z,64.53
2023-03-03T21:43:31.776Z,61.33
2023-03-03T21:45:01.023Z,58.61
2023-03-03T21:46:34.624Z,56.04
2023-03-03T21:48:00.677Z,56.49